sensor_id;sensor_type;location;lat;lon;timestamp;temperature;humidity
21906;DHT22;11117;48.644;9.006;2023-08-06T00:00:05;15.40;99.90
21906;DHT22;11117;48.644;9.006;2023-08-06T00:02:31;15.30;99.90
21906;DHT22;11117;48.644;9.006;2023-08-06T00:04:56;15.30;99.90
21906;DHT22;11117;48.644;9.006;2023-08-06T00:07:22;15.30;99.90
21906;DHT22;11117;48.644;9.006;2023-08-06T00:09:47;15.30;99.90
21906;DHT22;11117;48.644;9.006;2023-08-06T00:12:13;15.20;99.90
21906;DHT22;11117;48.644;9.006;2023-08-06T00:14:38;15.20;99.90
21906;DHT22;11117;48.644;9.006;2023-08-06T00:17:04;15.10;99.90
21906;DHT22;11117;48.644;9.006;2023-08-06T00:19:30;15.10;99.90
21906;DHT22;11117;48.644;9.006;2023-08-06T00:21:56;15.10;99.90
21906;DHT22;11117;48.644;9.006;2023-08-06T00:24:21;15.00;99.90
21906;DHT22;11117;48.644;9.006;2023-08-06T00:26:47;15.00;99.90
21906;DHT22;11117;48.644;9.006;2023-08-06T00:29:15;14.90;99.90
21906;DHT22;11117;48.644;9.006;2023-08-06T00:31:41;14.90;99.90
21906;DHT22;11117;48.644;9.006;2023-08-06T00:34:06;14.90;99.90
21906;DHT22;11117;48.644;9.006;2023-08-06T00:36:32;14.90;99.90
21906;DHT22;11117;48.644;9.006;2023-08-06T00:38:57;14.80;99.90
21906;DHT22;11117;48.644;9.006;2023-08-06T00:41:23;14.80;99.90
21906;DHT22;11117;48.644;9.006;2023-08-06T00:43:48;14.80;99.90
21906;DHT22;11117;48.644;9.006;2023-08-06T00:46:17;14.70;99.90
21906;DHT22;11117;48.644;9.006;2023-08-06T00:48:43;14.60;99.90
21906;DHT22;11117;48.644;9.006;2023-08-06T00:51:10;14.60;99.90
21906;DHT22;11117;48.644;9.006;2023-08-06T00:53:37;14.60;99.90
21906;DHT22;11117;48.644;9.006;2023-08-06T00:56:03;14.60;99.90
21906;DHT22;11117;48.644;9.006;2023-08-06T00:58:31;14.50;99.90
21906;DHT22;11117;48.644;9.006;2023-08-06T01:00:57;14.50;99.90
21906;DHT22;11117;48.644;9.006;2023-08-06T01:03:23;14.40;99.90
21906;DHT22;11117;48.644;9.006;2023-08-06T01:05:48;14.40;99.90
21906;DHT22;11117;48.644;9.006;2023-08-06T01:11:16;14.40;99.90
21906;DHT22;11117;48.644;9.006;2023-08-06T01:13:47;14.30;99.90
21906;DHT22;11117;48.644;9.006;2023-08-06T01:16:20;14.30;99.90
21906;DHT22;11117;48.644;9.006;2023-08-06T01:18:47;14.30;99.90
21906;DHT22;11117;48.644;9.006;2023-08-06T01:21:13;14.30;99.90
21906;DHT22;11117;48.644;9.006;2023-08-06T01:23:39;14.30;99.90
21906;DHT22;11117;48.644;9.006;2023-08-06T01:31:34;14.20;99.90
21906;DHT22;11117;48.644;9.006;2023-08-06T01:34:01;14.00;99.90
21906;DHT22;11117;48.644;9.006;2023-08-06T01:36:28;13.90;99.90
21906;DHT22;11117;48.644;9.006;2023-08-06T01:38:54;13.80;99.90
21906;DHT22;11117;48.644;9.006;2023-08-06T01:41:19;13.90;99.90
21906;DHT22;11117;48.644;9.006;2023-08-06T01:43:45;13.90;99.90
21906;DHT22;11117;48.644;9.006;2023-08-06T01:46:10;13.90;99.90
21906;DHT22;11117;48.644;9.006;2023-08-06T01:48:36;13.90;99.90
21906;DHT22;11117;48.644;9.006;2023-08-06T01:51:04;13.90;99.90
21906;DHT22;11117;48.644;9.006;2023-08-06T01:53:30;13.90;99.90
21906;DHT22;11117;48.644;9.006;2023-08-06T01:55:55;13.90;99.90
21906;DHT22;11117;48.644;9.006;2023-08-06T01:58:21;13.90;99.90
21906;DHT22;11117;48.644;9.006;2023-08-06T02:00:46;13.90;99.90
21906;DHT22;11117;48.644;9.006;2023-08-06T02:03:12;13.90;99.90
21906;DHT22;11117;48.644;9.006;2023-08-06T02:05:37;13.90;99.90
21906;DHT22;11117;48.644;9.006;2023-08-06T02:08:03;13.80;99.90
21906;DHT22;11117;48.644;9.006;2023-08-06T02:10:29;13.90;99.90
21906;DHT22;11117;48.644;9.006;2023-08-06T02:12:54;13.90;99.90
21906;DHT22;11117;48.644;9.006;2023-08-06T02:15:20;13.90;99.90
21906;DHT22;11117;48.644;9.006;2023-08-06T02:17:45;13.80;99.90
21906;DHT22;11117;48.644;9.006;2023-08-06T02:20:11;13.80;99.90
21906;DHT22;11117;48.644;9.006;2023-08-06T02:22:36;13.70;99.90
21906;DHT22;11117;48.644;9.006;2023-08-06T02:25:02;13.70;99.90
21906;DHT22;11117;48.644;9.006;2023-08-06T02:27:27;13.60;99.90
21906;DHT22;11117;48.644;9.006;2023-08-06T02:29:53;13.60;99.90
21906;DHT22;11117;48.644;9.006;2023-08-06T02:32:19;13.60;99.90
21906;DHT22;11117;48.644;9.006;2023-08-06T02:34:44;13.60;99.90
21906;DHT22;11117;48.644;9.006;2023-08-06T02:37:10;13.70;99.90
21906;DHT22;11117;48.644;9.006;2023-08-06T02:39:35;13.60;99.90
21906;DHT22;11117;48.644;9.006;2023-08-06T02:42:01;13.70;99.90
21906;DHT22;11117;48.644;9.006;2023-08-06T02:44:29;13.80;99.90
21906;DHT22;11117;48.644;9.006;2023-08-06T02:46:54;13.90;99.90
21906;DHT22;11117;48.644;9.006;2023-08-06T02:49:20;13.80;99.90
21906;DHT22;11117;48.644;9.006;2023-08-06T02:51:46;13.90;99.90
21906;DHT22;11117;48.644;9.006;2023-08-06T02:54:12;13.90;99.90
21906;DHT22;11117;48.644;9.006;2023-08-06T02:56:38;14.00;99.90
21906;DHT22;11117;48.644;9.006;2023-08-06T02:59:03;14.00;99.90
21906;DHT22;11117;48.644;9.006;2023-08-06T03:01:29;14.00;99.90
21906;DHT22;11117;48.644;9.006;2023-08-06T03:03:55;14.10;99.90
21906;DHT22;11117;48.644;9.006;2023-08-06T03:06:20;14.00;99.90
21906;DHT22;11117;48.644;9.006;2023-08-06T03:08:46;14.10;99.90
21906;DHT22;11117;48.644;9.006;2023-08-06T03:11:11;14.10;99.90
21906;DHT22;11117;48.644;9.006;2023-08-06T03:13:37;14.20;99.90
21906;DHT22;11117;48.644;9.006;2023-08-06T03:16:02;14.20;99.90
21906;DHT22;11117;48.644;9.006;2023-08-06T03:18:28;14.30;99.90
21906;DHT22;11117;48.644;9.006;2023-08-06T03:20:54;14.30;99.90
21906;DHT22;11117;48.644;9.006;2023-08-06T03:23:19;14.30;99.90
21906;DHT22;11117;48.644;9.006;2023-08-06T03:25:45;14.30;99.90
21906;DHT22;11117;48.644;9.006;2023-08-06T03:28:10;14.40;99.90
21906;DHT22;11117;48.644;9.006;2023-08-06T03:30:36;14.40;99.90
21906;DHT22;11117;48.644;9.006;2023-08-06T03:33:02;14.50;99.90
21906;DHT22;11117;48.644;9.006;2023-08-06T03:35:27;14.50;99.90
21906;DHT22;11117;48.644;9.006;2023-08-06T03:37:53;14.50;99.90
21906;DHT22;11117;48.644;9.006;2023-08-06T03:40:18;14.50;99.90
21906;DHT22;11117;48.644;9.006;2023-08-06T03:42:44;14.50;99.90
21906;DHT22;11117;48.644;9.006;2023-08-06T03:45:09;14.50;99.90
21906;DHT22;11117;48.644;9.006;2023-08-06T03:47:35;14.50;99.90
21906;DHT22;11117;48.644;9.006;2023-08-06T03:50:01;14.40;99.90
21906;DHT22;11117;48.644;9.006;2023-08-06T03:52:26;14.40;99.90
21906;DHT22;11117;48.644;9.006;2023-08-06T03:54:52;14.40;99.90
21906;DHT22;11117;48.644;9.006;2023-08-06T03:57:17;14.50;99.90
21906;DHT22;11117;48.644;9.006;2023-08-06T03:59:43;14.50;99.90
21906;DHT22;11117;48.644;9.006;2023-08-06T04:02:08;14.50;99.90
21906;DHT22;11117;48.644;9.006;2023-08-06T04:04:34;14.60;99.90
21906;DHT22;11117;48.644;9.006;2023-08-06T04:07:00;14.60;99.90
21906;DHT22;11117;48.644;9.006;2023-08-06T04:09:27;14.60;99.90
21906;DHT22;11117;48.644;9.006;2023-08-06T04:11:53;14.50;99.90
21906;DHT22;11117;48.644;9.006;2023-08-06T04:14:18;14.60;99.90
21906;DHT22;11117;48.644;9.006;2023-08-06T04:16:44;14.50;99.90
21906;DHT22;11117;48.644;9.006;2023-08-06T04:19:10;14.50;99.90
21906;DHT22;11117;48.644;9.006;2023-08-06T04:21:35;14.50;99.90
21906;DHT22;11117;48.644;9.006;2023-08-06T04:24:01;14.50;99.90
21906;DHT22;11117;48.644;9.006;2023-08-06T04:26:26;14.50;99.90
21906;DHT22;11117;48.644;9.006;2023-08-06T04:28:52;14.50;99.90
21906;DHT22;11117;48.644;9.006;2023-08-06T04:31:17;14.50;99.90
21906;DHT22;11117;48.644;9.006;2023-08-06T04:33:43;14.50;99.90
21906;DHT22;11117;48.644;9.006;2023-08-06T04:36:08;14.60;99.90
21906;DHT22;11117;48.644;9.006;2023-08-06T04:38:34;14.70;99.90
21906;DHT22;11117;48.644;9.006;2023-08-06T04:41:01;14.50;99.90
21906;DHT22;11117;48.644;9.006;2023-08-06T04:43:27;14.50;99.90
21906;DHT22;11117;48.644;9.006;2023-08-06T04:45:54;14.60;99.90
21906;DHT22;11117;48.644;9.006;2023-08-06T04:48:20;14.50;99.90
21906;DHT22;11117;48.644;9.006;2023-08-06T04:50:46;14.50;99.90
21906;DHT22;11117;48.644;9.006;2023-08-06T04:53:12;14.40;99.90
21906;DHT22;11117;48.644;9.006;2023-08-06T04:55:38;14.30;99.90
21906;DHT22;11117;48.644;9.006;2023-08-06T04:58:03;14.30;99.90
21906;DHT22;11117;48.644;9.006;2023-08-06T05:00:30;14.30;99.90
21906;DHT22;11117;48.644;9.006;2023-08-06T05:02:55;14.30;99.90
21906;DHT22;11117;48.644;9.006;2023-08-06T05:05:21;14.30;99.90
21906;DHT22;11117;48.644;9.006;2023-08-06T05:07:49;14.20;99.90
21906;DHT22;11117;48.644;9.006;2023-08-06T05:10:15;14.30;99.90
21906;DHT22;11117;48.644;9.006;2023-08-06T05:12:40;14.60;99.90
21906;DHT22;11117;48.644;9.006;2023-08-06T05:15:06;14.70;99.90
21906;DHT22;11117;48.644;9.006;2023-08-06T05:17:32;15.00;99.90
21906;DHT22;11117;48.644;9.006;2023-08-06T05:19:57;15.40;99.90
21906;DHT22;11117;48.644;9.006;2023-08-06T05:22:23;15.80;99.90
21906;DHT22;11117;48.644;9.006;2023-08-06T05:24:48;16.20;99.90
21906;DHT22;11117;48.644;9.006;2023-08-06T05:27:14;16.50;99.90
21906;DHT22;11117;48.644;9.006;2023-08-06T05:29:39;16.70;99.90
21906;DHT22;11117;48.644;9.006;2023-08-06T05:32:05;16.90;99.90
21906;DHT22;11117;48.644;9.006;2023-08-06T05:34:31;17.10;99.90
21906;DHT22;11117;48.644;9.006;2023-08-06T05:36:56;17.10;99.90
21906;DHT22;11117;48.644;9.006;2023-08-06T05:39:22;17.10;99.90
21906;DHT22;11117;48.644;9.006;2023-08-06T05:41:47;17.10;99.90
21906;DHT22;11117;48.644;9.006;2023-08-06T05:44:16;17.10;99.90
21906;DHT22;11117;48.644;9.006;2023-08-06T05:46:42;17.10;99.90
21906;DHT22;11117;48.644;9.006;2023-08-06T05:49:07;17.00;99.90
21906;DHT22;11117;48.644;9.006;2023-08-06T05:51:33;16.70;99.90
21906;DHT22;11117;48.644;9.006;2023-08-06T05:53:58;16.70;99.90
21906;DHT22;11117;48.644;9.006;2023-08-06T05:56:24;16.80;99.90
21906;DHT22;11117;48.644;9.006;2023-08-06T05:58:49;16.70;99.90
21906;DHT22;11117;48.644;9.006;2023-08-06T06:01:15;16.80;99.90
21906;DHT22;11117;48.644;9.006;2023-08-06T06:03:40;16.60;99.90
21906;DHT22;11117;48.644;9.006;2023-08-06T06:06:06;16.50;99.90
21906;DHT22;11117;48.644;9.006;2023-08-06T06:08:31;16.60;99.90
21906;DHT22;11117;48.644;9.006;2023-08-06T06:10:58;16.80;99.90
21906;DHT22;11117;48.644;9.006;2023-08-06T06:13:23;16.90;99.90
21906;DHT22;11117;48.644;9.006;2023-08-06T06:15:49;16.90;99.90
21906;DHT22;11117;48.644;9.006;2023-08-06T06:18:14;16.80;99.90
21906;DHT22;11117;48.644;9.006;2023-08-06T06:20:40;16.60;99.90
21906;DHT22;11117;48.644;9.006;2023-08-06T06:23:05;16.60;99.90
21906;DHT22;11117;48.644;9.006;2023-08-06T06:25:31;16.60;99.90
21906;DHT22;11117;48.644;9.006;2023-08-06T06:27:56;16.30;99.90
21906;DHT22;11117;48.644;9.006;2023-08-06T06:30:22;16.40;99.90
21906;DHT22;11117;48.644;9.006;2023-08-06T06:32:47;16.50;99.90
21906;DHT22;11117;48.644;9.006;2023-08-06T06:35:13;16.50;99.90
21906;DHT22;11117;48.644;9.006;2023-08-06T06:37:38;16.50;99.90
21906;DHT22;11117;48.644;9.006;2023-08-06T06:40:05;16.70;99.90
21906;DHT22;11117;48.644;9.006;2023-08-06T06:42:30;16.60;99.90
21906;DHT22;11117;48.644;9.006;2023-08-06T06:44:56;16.70;99.90
21906;DHT22;11117;48.644;9.006;2023-08-06T06:47:21;16.80;99.90
21906;DHT22;11117;48.644;9.006;2023-08-06T06:49:47;16.70;99.90
21906;DHT22;11117;48.644;9.006;2023-08-06T06:52:12;16.70;99.90
21906;DHT22;11117;48.644;9.006;2023-08-06T06:54:38;16.70;99.90
21906;DHT22;11117;48.644;9.006;2023-08-06T06:57:04;16.80;99.90
21906;DHT22;11117;48.644;9.006;2023-08-06T06:59:29;16.60;99.90
21906;DHT22;11117;48.644;9.006;2023-08-06T07:01:55;16.40;99.90
21906;DHT22;11117;48.644;9.006;2023-08-06T07:04:20;16.40;99.90
21906;DHT22;11117;48.644;9.006;2023-08-06T07:06:46;16.60;99.90
21906;DHT22;11117;48.644;9.006;2023-08-06T07:09:15;16.60;99.90
21906;DHT22;11117;48.644;9.006;2023-08-06T07:11:40;16.40;99.90
21906;DHT22;11117;48.644;9.006;2023-08-06T07:14:07;16.60;99.90
21906;DHT22;11117;48.644;9.006;2023-08-06T07:16:33;16.80;99.90
21906;DHT22;11117;48.644;9.006;2023-08-06T07:18:58;16.70;99.90
21906;DHT22;11117;48.644;9.006;2023-08-06T07:21:24;16.60;99.90
21906;DHT22;11117;48.644;9.006;2023-08-06T07:23:49;16.60;99.90
21906;DHT22;11117;48.644;9.006;2023-08-06T07:26:16;16.60;99.90
21906;DHT22;11117;48.644;9.006;2023-08-06T07:28:41;16.80;99.90
21906;DHT22;11117;48.644;9.006;2023-08-06T07:31:07;16.60;99.90
21906;DHT22;11117;48.644;9.006;2023-08-06T07:33:32;16.80;99.90
21906;DHT22;11117;48.644;9.006;2023-08-06T07:35:58;16.80;99.90
21906;DHT22;11117;48.644;9.006;2023-08-06T07:38:23;16.80;99.90
21906;DHT22;11117;48.644;9.006;2023-08-06T07:40:49;16.80;99.90
21906;DHT22;11117;48.644;9.006;2023-08-06T07:43:14;16.80;99.90
21906;DHT22;11117;48.644;9.006;2023-08-06T07:45:40;16.70;99.90
21906;DHT22;11117;48.644;9.006;2023-08-06T07:48:06;16.90;99.90
21906;DHT22;11117;48.644;9.006;2023-08-06T07:50:31;16.80;99.90
21906;DHT22;11117;48.644;9.006;2023-08-06T07:52:57;16.90;99.90
21906;DHT22;11117;48.644;9.006;2023-08-06T07:55:23;16.90;99.90
21906;DHT22;11117;48.644;9.006;2023-08-06T07:57:48;16.90;99.90
21906;DHT22;11117;48.644;9.006;2023-08-06T08:00:14;17.00;99.90
21906;DHT22;11117;48.644;9.006;2023-08-06T08:02:39;17.20;99.90
21906;DHT22;11117;48.644;9.006;2023-08-06T08:05:05;17.00;99.90
21906;DHT22;11117;48.644;9.006;2023-08-06T08:07:30;16.90;99.90
21906;DHT22;11117;48.644;9.006;2023-08-06T08:09:56;17.10;99.90
21906;DHT22;11117;48.644;9.006;2023-08-06T08:12:22;16.90;99.90
21906;DHT22;11117;48.644;9.006;2023-08-06T08:14:48;16.60;99.90
21906;DHT22;11117;48.644;9.006;2023-08-06T08:17:13;16.20;99.90
21906;DHT22;11117;48.644;9.006;2023-08-06T08:19:40;16.50;99.90
21906;DHT22;11117;48.644;9.006;2023-08-06T08:22:05;16.20;99.90
21906;DHT22;11117;48.644;9.006;2023-08-06T08:24:31;16.20;99.90
21906;DHT22;11117;48.644;9.006;2023-08-06T08:26:57;16.20;99.90
21906;DHT22;11117;48.644;9.006;2023-08-06T08:29:22;16.20;99.90
21906;DHT22;11117;48.644;9.006;2023-08-06T08:31:48;16.20;99.90
21906;DHT22;11117;48.644;9.006;2023-08-06T08:34:19;16.00;99.90
21906;DHT22;11117;48.644;9.006;2023-08-06T08:36:44;16.30;99.90
21906;DHT22;11117;48.644;9.006;2023-08-06T08:39:11;16.30;99.90
21906;DHT22;11117;48.644;9.006;2023-08-06T08:41:37;16.50;99.90
21906;DHT22;11117;48.644;9.006;2023-08-06T08:44:07;16.60;99.90
21906;DHT22;11117;48.644;9.006;2023-08-06T08:46:33;16.80;99.90
21906;DHT22;11117;48.644;9.006;2023-08-06T08:49:00;17.10;99.90
21906;DHT22;11117;48.644;9.006;2023-08-06T08:51:28;17.20;99.90
21906;DHT22;11117;48.644;9.006;2023-08-06T08:53:56;17.40;99.90
21906;DHT22;11117;48.644;9.006;2023-08-06T08:56:21;17.40;99.90
21906;DHT22;11117;48.644;9.006;2023-08-06T08:58:47;17.30;99.90
21906;DHT22;11117;48.644;9.006;2023-08-06T09:01:13;17.60;99.90
21906;DHT22;11117;48.644;9.006;2023-08-06T09:03:39;17.50;99.90
21906;DHT22;11117;48.644;9.006;2023-08-06T09:06:05;17.60;99.90
21906;DHT22;11117;48.644;9.006;2023-08-06T09:08:37;17.90;99.90
21906;DHT22;11117;48.644;9.006;2023-08-06T09:11:04;18.00;99.90
21906;DHT22;11117;48.644;9.006;2023-08-06T09:13:30;18.40;99.90
21906;DHT22;11117;48.644;9.006;2023-08-06T09:15:56;18.60;99.90
21906;DHT22;11117;48.644;9.006;2023-08-06T09:18:29;18.80;99.90
21906;DHT22;11117;48.644;9.006;2023-08-06T09:20:55;18.80;99.90
21906;DHT22;11117;48.644;9.006;2023-08-06T09:23:20;18.40;99.90
21906;DHT22;11117;48.644;9.006;2023-08-06T09:25:52;18.80;99.90
21906;DHT22;11117;48.644;9.006;2023-08-06T09:28:17;19.00;99.90
21906;DHT22;11117;48.644;9.006;2023-08-06T09:30:43;18.70;99.90
21906;DHT22;11117;48.644;9.006;2023-08-06T09:33:09;18.40;99.90
21906;DHT22;11117;48.644;9.006;2023-08-06T09:35:34;18.60;99.90
21906;DHT22;11117;48.644;9.006;2023-08-06T09:38:07;18.20;99.90
21906;DHT22;11117;48.644;9.006;2023-08-06T09:40:33;18.00;99.90
21906;DHT22;11117;48.644;9.006;2023-08-06T09:42:59;18.20;99.90
21906;DHT22;11117;48.644;9.006;2023-08-06T09:45:36;17.90;99.90
21906;DHT22;11117;48.644;9.006;2023-08-06T09:48:06;17.60;99.90
21906;DHT22;11117;48.644;9.006;2023-08-06T09:50:34;17.50;99.90
21906;DHT22;11117;48.644;9.006;2023-08-06T09:53:01;17.30;99.90
21906;DHT22;11117;48.644;9.006;2023-08-06T09:55:27;17.10;99.90
21906;DHT22;11117;48.644;9.006;2023-08-06T09:57:53;16.70;99.90
21906;DHT22;11117;48.644;9.006;2023-08-06T10:00:19;16.80;99.90
21906;DHT22;11117;48.644;9.006;2023-08-06T10:02:48;16.80;99.90
21906;DHT22;11117;48.644;9.006;2023-08-06T10:05:14;16.70;99.90
21906;DHT22;11117;48.644;9.006;2023-08-06T10:07:43;16.40;99.90
21906;DHT22;11117;48.644;9.006;2023-08-06T10:10:08;16.60;99.90
21906;DHT22;11117;48.644;9.006;2023-08-06T10:12:37;16.50;99.90
21906;DHT22;11117;48.644;9.006;2023-08-06T10:15:08;16.40;99.90
21906;DHT22;11117;48.644;9.006;2023-08-06T10:17:36;16.40;99.90
21906;DHT22;11117;48.644;9.006;2023-08-06T10:20:04;16.50;99.90
21906;DHT22;11117;48.644;9.006;2023-08-06T10:22:32;16.60;99.90
21906;DHT22;11117;48.644;9.006;2023-08-06T10:24:59;16.90;99.90
21906;DHT22;11117;48.644;9.006;2023-08-06T10:27:36;17.00;99.90
21906;DHT22;11117;48.644;9.006;2023-08-06T10:30:24;16.90;99.90
21906;DHT22;11117;48.644;9.006;2023-08-06T10:32:51;16.80;99.90
21906;DHT22;11117;48.644;9.006;2023-08-06T10:35:30;16.50;99.90
21906;DHT22;11117;48.644;9.006;2023-08-06T10:38:02;16.30;99.90
21906;DHT22;11117;48.644;9.006;2023-08-06T10:40:28;16.00;99.90
21906;DHT22;11117;48.644;9.006;2023-08-06T10:42:54;15.60;99.90
21906;DHT22;11117;48.644;9.006;2023-08-06T10:45:19;15.60;99.90
21906;DHT22;11117;48.644;9.006;2023-08-06T10:47:46;15.30;99.90
21906;DHT22;11117;48.644;9.006;2023-08-06T10:50:16;15.20;99.90
21906;DHT22;11117;48.644;9.006;2023-08-06T10:52:45;15.00;99.90
21906;DHT22;11117;48.644;9.006;2023-08-06T10:55:11;15.00;99.90
21906;DHT22;11117;48.644;9.006;2023-08-06T10:57:37;14.90;99.90
21906;DHT22;11117;48.644;9.006;2023-08-06T11:00:08;15.10;99.90
21906;DHT22;11117;48.644;9.006;2023-08-06T11:02:35;15.20;99.90
21906;DHT22;11117;48.644;9.006;2023-08-06T11:05:10;15.30;99.90
21906;DHT22;11117;48.644;9.006;2023-08-06T11:07:37;15.30;99.90
21906;DHT22;11117;48.644;9.006;2023-08-06T11:10:07;15.40;99.90
21906;DHT22;11117;48.644;9.006;2023-08-06T11:12:33;15.50;99.90
21906;DHT22;11117;48.644;9.006;2023-08-06T11:15:00;15.70;99.90
21906;DHT22;11117;48.644;9.006;2023-08-06T11:17:28;15.40;99.90
21906;DHT22;11117;48.644;9.006;2023-08-06T11:19:53;15.40;99.90
21906;DHT22;11117;48.644;9.006;2023-08-06T11:22:20;15.50;99.90
21906;DHT22;11117;48.644;9.006;2023-08-06T11:24:46;15.60;99.90
21906;DHT22;11117;48.644;9.006;2023-08-06T11:27:16;15.60;99.90
21906;DHT22;11117;48.644;9.006;2023-08-06T11:29:42;15.60;99.90
21906;DHT22;11117;48.644;9.006;2023-08-06T11:32:09;15.80;99.90
21906;DHT22;11117;48.644;9.006;2023-08-06T11:34:35;16.10;99.90
21906;DHT22;11117;48.644;9.006;2023-08-06T11:37:03;16.00;99.90
21906;DHT22;11117;48.644;9.006;2023-08-06T11:39:29;15.90;99.90
21906;DHT22;11117;48.644;9.006;2023-08-06T11:41:54;15.90;99.90
21906;DHT22;11117;48.644;9.006;2023-08-06T11:44:20;15.60;99.90
21906;DHT22;11117;48.644;9.006;2023-08-06T11:46:56;15.70;99.90
21906;DHT22;11117;48.644;9.006;2023-08-06T11:49:47;15.80;99.90
21906;DHT22;11117;48.644;9.006;2023-08-06T11:52:24;15.70;99.90
21906;DHT22;11117;48.644;9.006;2023-08-06T11:55:04;15.70;99.90
21906;DHT22;11117;48.644;9.006;2023-08-06T11:57:30;15.60;99.90
21906;DHT22;11117;48.644;9.006;2023-08-06T11:59:56;15.60;99.90
21906;DHT22;11117;48.644;9.006;2023-08-06T12:02:21;15.40;99.90
21906;DHT22;11117;48.644;9.006;2023-08-06T12:07:47;15.30;99.90
21906;DHT22;11117;48.644;9.006;2023-08-06T12:10:14;15.10;99.90
21906;DHT22;11117;48.644;9.006;2023-08-06T12:12:39;15.00;99.90
21906;DHT22;11117;48.644;9.006;2023-08-06T12:15:06;14.70;99.90
21906;DHT22;11117;48.644;9.006;2023-08-06T12:17:32;14.80;99.90
21906;DHT22;11117;48.644;9.006;2023-08-06T12:19:58;14.80;99.90
21906;DHT22;11117;48.644;9.006;2023-08-06T12:22:24;14.90;99.90
21906;DHT22;11117;48.644;9.006;2023-08-06T12:24:49;15.10;99.90
21906;DHT22;11117;48.644;9.006;2023-08-06T12:27:15;15.20;99.90
21906;DHT22;11117;48.644;9.006;2023-08-06T12:29:42;15.20;99.90
21906;DHT22;11117;48.644;9.006;2023-08-06T12:32:08;15.30;99.90
21906;DHT22;11117;48.644;9.006;2023-08-06T12:34:34;15.30;99.90
21906;DHT22;11117;48.644;9.006;2023-08-06T12:36:59;15.40;99.90
21906;DHT22;11117;48.644;9.006;2023-08-06T12:39:25;15.40;99.90
21906;DHT22;11117;48.644;9.006;2023-08-06T12:41:50;15.40;99.90
21906;DHT22;11117;48.644;9.006;2023-08-06T12:44:18;15.40;99.90
21906;DHT22;11117;48.644;9.006;2023-08-06T12:46:43;15.60;99.90
21906;DHT22;11117;48.644;9.006;2023-08-06T12:49:09;15.60;99.90
21906;DHT22;11117;48.644;9.006;2023-08-06T12:51:34;15.60;99.90
21906;DHT22;11117;48.644;9.006;2023-08-06T12:54:00;15.70;99.90
21906;DHT22;11117;48.644;9.006;2023-08-06T12:56:25;15.30;99.90
21906;DHT22;11117;48.644;9.006;2023-08-06T12:58:51;15.50;99.90
21906;DHT22;11117;48.644;9.006;2023-08-06T13:01:16;15.40;99.90
21906;DHT22;11117;48.644;9.006;2023-08-06T13:03:42;15.60;99.90
21906;DHT22;11117;48.644;9.006;2023-08-06T13:06:07;15.60;99.90
21906;DHT22;11117;48.644;9.006;2023-08-06T13:08:33;15.70;99.90
21906;DHT22;11117;48.644;9.006;2023-08-06T13:10:58;16.10;99.90
21906;DHT22;11117;48.644;9.006;2023-08-06T13:13:24;16.40;99.90
21906;DHT22;11117;48.644;9.006;2023-08-06T13:15:49;16.30;99.90
21906;DHT22;11117;48.644;9.006;2023-08-06T13:18:15;16.20;99.90
21906;DHT22;11117;48.644;9.006;2023-08-06T13:20:41;16.20;99.90
21906;DHT22;11117;48.644;9.006;2023-08-06T13:23:06;15.90;99.90
21906;DHT22;11117;48.644;9.006;2023-08-06T13:25:32;15.80;99.90
21906;DHT22;11117;48.644;9.006;2023-08-06T13:27:57;16.00;99.90
21906;DHT22;11117;48.644;9.006;2023-08-06T13:30:23;16.00;99.90
21906;DHT22;11117;48.644;9.006;2023-08-06T13:32:48;16.00;99.90
21906;DHT22;11117;48.644;9.006;2023-08-06T13:35:14;15.80;99.90
21906;DHT22;11117;48.644;9.006;2023-08-06T13:37:39;15.80;99.90
21906;DHT22;11117;48.644;9.006;2023-08-06T13:40:06;16.20;99.90
21906;DHT22;11117;48.644;9.006;2023-08-06T13:42:32;16.20;99.90
21906;DHT22;11117;48.644;9.006;2023-08-06T13:44:57;16.60;99.90
21906;DHT22;11117;48.644;9.006;2023-08-06T13:47:23;17.10;99.90
21906;DHT22;11117;48.644;9.006;2023-08-06T13:49:49;17.00;99.90
21906;DHT22;11117;48.644;9.006;2023-08-06T13:52:14;17.10;99.90
21906;DHT22;11117;48.644;9.006;2023-08-06T13:54:40;17.00;99.90
21906;DHT22;11117;48.644;9.006;2023-08-06T13:57:05;17.20;99.90
21906;DHT22;11117;48.644;9.006;2023-08-06T13:59:31;17.20;99.90
21906;DHT22;11117;48.644;9.006;2023-08-06T14:01:56;16.90;99.90
21906;DHT22;11117;48.644;9.006;2023-08-06T14:04:22;16.80;99.90
21906;DHT22;11117;48.644;9.006;2023-08-06T14:06:47;16.80;99.90
21906;DHT22;11117;48.644;9.006;2023-08-06T14:09:14;16.60;99.90
21906;DHT22;11117;48.644;9.006;2023-08-06T14:11:40;16.50;99.90
21906;DHT22;11117;48.644;9.006;2023-08-06T14:14:05;16.10;99.90
21906;DHT22;11117;48.644;9.006;2023-08-06T14:16:31;15.70;99.90
21906;DHT22;11117;48.644;9.006;2023-08-06T14:18:56;15.50;99.90
21906;DHT22;11117;48.644;9.006;2023-08-06T14:21:22;15.50;99.90
21906;DHT22;11117;48.644;9.006;2023-08-06T14:23:47;15.20;99.90
21906;DHT22;11117;48.644;9.006;2023-08-06T14:26:13;15.30;99.90
21906;DHT22;11117;48.644;9.006;2023-08-06T14:28:38;15.30;99.90
21906;DHT22;11117;48.644;9.006;2023-08-06T14:31:04;15.40;99.90
21906;DHT22;11117;48.644;9.006;2023-08-06T14:33:29;15.40;99.90
21906;DHT22;11117;48.644;9.006;2023-08-06T14:35:55;15.50;99.90
21906;DHT22;11117;48.644;9.006;2023-08-06T14:38:21;15.40;99.90
21906;DHT22;11117;48.644;9.006;2023-08-06T14:40:46;15.20;99.90
21906;DHT22;11117;48.644;9.006;2023-08-06T14:43:12;15.20;99.90
21906;DHT22;11117;48.644;9.006;2023-08-06T14:45:38;15.40;99.90
21906;DHT22;11117;48.644;9.006;2023-08-06T14:48:04;15.40;99.90
21906;DHT22;11117;48.644;9.006;2023-08-06T14:50:30;15.60;99.90
21906;DHT22;11117;48.644;9.006;2023-08-06T14:52:55;15.80;99.90
21906;DHT22;11117;48.644;9.006;2023-08-06T14:55:25;15.80;99.90
21906;DHT22;11117;48.644;9.006;2023-08-06T14:57:51;15.90;99.90
21906;DHT22;11117;48.644;9.006;2023-08-06T15:00:17;15.90;99.90
21906;DHT22;11117;48.644;9.006;2023-08-06T15:02:42;15.70;99.90
21906;DHT22;11117;48.644;9.006;2023-08-06T15:05:08;15.70;99.90
21906;DHT22;11117;48.644;9.006;2023-08-06T15:07:33;15.40;99.90
21906;DHT22;11117;48.644;9.006;2023-08-06T15:09:59;15.30;99.90
21906;DHT22;11117;48.644;9.006;2023-08-06T15:12:24;15.20;99.90
21906;DHT22;11117;48.644;9.006;2023-08-06T15:14:50;15.30;99.90
21906;DHT22;11117;48.644;9.006;2023-08-06T15:17:16;15.20;99.90
21906;DHT22;11117;48.644;9.006;2023-08-06T15:19:41;15.10;99.90
21906;DHT22;11117;48.644;9.006;2023-08-06T15:22:07;15.10;99.90
21906;DHT22;11117;48.644;9.006;2023-08-06T15:24:32;14.90;99.90
21906;DHT22;11117;48.644;9.006;2023-08-06T15:26:58;14.90;99.90
21906;DHT22;11117;48.644;9.006;2023-08-06T15:29:23;15.00;99.90
21906;DHT22;11117;48.644;9.006;2023-08-06T15:31:49;15.20;99.90
21906;DHT22;11117;48.644;9.006;2023-08-06T15:34:18;15.10;99.90